»·PEaware :: SWA1488 KMDW-KSAN

SWA1488 :: KMDW-KSAN

FLIGHT INFORMATION

Flight Status: Arrived
Operator:
Southwest Airlines
More flights by this operator :: More flights under this callsign
Pilot: Daniel W. (24238)
Aircraft: BOEING 737-800
(B738)
More flights by this aircraft type
Origin: KMDW Chicago-Midway
United States
Destination: KSAN San Diego Intl-Lindbergh
United States
More flights between these airports :: More routes between these airports
Route: PEKUE PIGGG QUANE CARET ROEZZ MCI J26 PNH CRTTR SJN J18 HOGGZ LUCKI1
File this flight plan on PilotEdge
Remarks: PBN / A1D1O1S2T1 NAV / RNVD1E1A1 RNP10 DAT / 1FANSP2PDC DOF / 200107 REG / N8501V EET / KZKC0032 KZAB0146 KZLA0333 SEL / BHAF CODE / ABA9E7 PER / C
Altitude:
(Current/Filed)
36,000ft
Speed:
(Current/Filed)
461kts
Departed: 07-Jan-20 05:14 AM
Arrived: 07-Jan-20 08:48 AM
Distance/Time
Traveled:
1498nm/3:34
Distance/Time
To Go:
Arrived

Flight Plot

Page will automatically refresh every two minutes.

Flight plan parsing failed; only flown route is shown


Map Options




Map Legend


Flown Route
Filed Route
Departure Airport
Arrival Airport
Navaid (VOR, NDB)
Fix

Horizontal Profiles

Position Reports

Time Latitude Longitude Heading Altitude Ground
Speed
07-Jan-20 05:12 40.915673 -91.213027 246 36109ft 417kts
07-Jan-20 05:13 40.857845 -91.346095 246 36117ft 417kts
07-Jan-20 05:14 40.799780 -91.478992 246 36120ft 416kts
07-Jan-20 05:15 40.749742 -91.614890 252 36122ft 411kts
07-Jan-20 05:16 40.703739 -91.752867 252 36127ft 411kts
07-Jan-20 05:17 40.657266 -91.890183 252 36130ft 411kts
07-Jan-20 05:18 40.611190 -92.027717 252 36135ft 409kts
07-Jan-20 05:19 40.564954 -92.164089 252 36138ft 408kts
07-Jan-20 05:20 40.518345 -92.300485 252 36143ft 408kts
07-Jan-20 05:21 40.472129 -92.436227 252 36159ft 407kts
07-Jan-20 05:22 40.425232 -92.571469 252 36166ft 408kts
07-Jan-20 05:23 40.377469 -92.706982 248 36169ft 410kts
07-Jan-20 05:24 40.313717 -92.833086 243 36172ft 416kts
07-Jan-20 05:25 40.248145 -92.957128 243 36176ft 415kts
07-Jan-20 05:26 40.182297 -93.081322 243 36182ft 414kts
07-Jan-20 05:27 40.117357 -93.205235 243 36193ft 413kts
07-Jan-20 05:28 40.051958 -93.328581 243 36213ft 412kts
07-Jan-20 05:29 39.986650 -93.451048 243 36223ft 411kts
07-Jan-20 05:30 39.921347 -93.573018 243 36228ft 409kts
07-Jan-20 05:31 39.855992 -93.694601 243 36229ft 409kts
07-Jan-20 05:32 39.790586 -93.815812 243 36231ft 409kts
07-Jan-20 05:33 39.725103 -93.936709 243 36240ft 409kts
07-Jan-20 05:34 39.659339 -94.057657 243 36250ft 410kts
07-Jan-20 05:35 39.593558 -94.178194 243 36252ft 409kts
07-Jan-20 05:36 39.527720 -94.298376 243 36258ft 408kts
07-Jan-20 05:37 39.462116 -94.418102 244 36264ft 407kts
07-Jan-20 05:38 39.399094 -94.532500 243 36264ft 406kts
07-Jan-20 05:39 39.333328 -94.650815 243 36262ft 406kts
07-Jan-20 05:40 39.267918 -94.769536 245 36260ft 403kts
07-Jan-20 05:41 39.205811 -94.889500 245 36268ft 402kts
07-Jan-20 05:42 39.143219 -95.009194 245 36281ft 402kts
07-Jan-20 05:43 39.080896 -95.128310 245 36295ft 401kts
07-Jan-20 05:44 39.018724 -95.247672 245 36299ft 401kts
07-Jan-20 05:45 38.956318 -95.366304 245 36302ft 399kts
07-Jan-20 05:46 38.894092 -95.484021 245 36302ft 399kts
07-Jan-20 05:47 38.831616 -95.601752 245 36301ft 399kts
07-Jan-20 05:48 38.769151 -95.719035 245 36303ft 397kts
07-Jan-20 05:49 38.706688 -95.835891 245 36308ft 397kts
07-Jan-20 05:50 38.644326 -95.952142 245 36312ft 396kts
07-Jan-20 05:51 38.581930 -96.068043 245 36315ft 395kts
07-Jan-20 05:52 38.519389 -96.183801 245 36318ft 395kts
07-Jan-20 05:53 38.456716 -96.299400 245 36322ft 395kts
07-Jan-20 05:54 38.394084 -96.414515 245 36320ft 395kts
07-Jan-20 05:55 38.331773 -96.529332 244 36322ft 395kts
07-Jan-20 05:56 38.268805 -96.644017 244 36336ft 395kts
07-Jan-20 05:57 38.205598 -96.758623 244 36342ft 396kts
07-Jan-20 05:58 38.142327 -96.873075 244 36343ft 396kts
07-Jan-20 05:59 38.078704 -96.987557 244 36343ft 397kts
07-Jan-20 06:00 38.014936 -97.101935 244 36343ft 396kts
07-Jan-20 06:01 37.951889 -97.215565 244 36342ft 392kts
07-Jan-20 06:02 37.889160 -97.328671 244 36344ft 393kts
07-Jan-20 06:04 37.825799 -97.441257 244 36346ft 394kts
07-Jan-20 06:05 37.762177 -97.553916 244 36346ft 394kts
07-Jan-20 06:06 37.696361 -97.665717 242 36347ft 396kts
07-Jan-20 06:07 37.629388 -97.776426 242 36346ft 396kts
07-Jan-20 06:08 37.562576 -97.886900 242 36350ft 396kts
07-Jan-20 06:09 37.496499 -97.997365 242 36356ft 396kts
07-Jan-20 06:10 37.429456 -98.107738 242 36351ft 397kts
07-Jan-20 06:11 37.362203 -98.217918 242 36351ft 397kts
07-Jan-20 06:12 37.295567 -98.328276 242 36348ft 396kts
07-Jan-20 06:13 37.229022 -98.438693 242 36351ft 396kts
07-Jan-20 06:14 37.162465 -98.548692 242 36361ft 397kts
07-Jan-20 06:15 37.096096 -98.659048 242 36365ft 397kts
07-Jan-20 06:16 37.029350 -98.769498 242 36370ft 397kts
07-Jan-20 06:17 36.962419 -98.879582 241 36373ft 398kts
07-Jan-20 06:18 36.895474 -98.989282 241 36373ft 398kts
07-Jan-20 06:19 36.828172 -99.099188 241 36375ft 398kts
07-Jan-20 06:20 36.760622 -99.209145 241 36380ft 399kts
07-Jan-20 06:21 36.692919 -99.318992 241 36386ft 399kts
07-Jan-20 06:21 36.636537 -99.410203 241 36387ft 400kts
07-Jan-20 06:23 36.557013 -99.538442 241 36387ft 401kts
07-Jan-20 06:24 36.489045 -99.648243 241 36385ft 401kts
07-Jan-20 06:25 36.420333 -99.758004 240 36377ft 402kts
07-Jan-20 06:26 36.351890 -99.867040 240 36371ft 401kts
07-Jan-20 06:27 36.285313 -99.977799 241 36368ft 401kts
07-Jan-20 06:28 36.218817 -100.089041 241 36364ft 401kts
07-Jan-20 06:28 36.163617 -100.180973 241 36368ft 401kts
07-Jan-20 06:30 36.086335 -100.310497 241 36373ft 401kts
07-Jan-20 06:30 36.030806 -100.403005 241 36375ft 402kts
07-Jan-20 06:32 35.952916 -100.532074 241 36376ft 402kts
07-Jan-20 06:32 35.896888 -100.624577 241 36374ft 403kts
07-Jan-20 06:33 35.829907 -100.734846 241 36369ft 403kts
07-Jan-20 06:34 35.762344 -100.845698 241 36363ft 404kts
07-Jan-20 06:35 35.694927 -100.955967 241 36355ft 404kts
07-Jan-20 06:36 35.626971 -101.066767 240 36350ft 405kts
07-Jan-20 06:37 35.559190 -101.176934 240 36349ft 405kts
07-Jan-20 06:38 35.491089 -101.287274 240 36348ft 405kts
07-Jan-20 06:39 35.422855 -101.397718 241 36346ft 407kts
07-Jan-20 06:40 35.354473 -101.508060 240 36338ft 407kts
07-Jan-20 06:41 35.285418 -101.618572 240 36332ft 406kts
07-Jan-20 06:42 35.231254 -101.735714 260 36330ft 391kts
07-Jan-20 06:43 35.205645 -101.864976 261 36333ft 390kts
07-Jan-20 06:44 35.181657 -101.994191 261 36344ft 391kts
07-Jan-20 06:45 35.157798 -102.124210 262 36358ft 391kts
07-Jan-20 06:46 35.134465 -102.254517 262 36371ft 392kts
07-Jan-20 06:47 35.110668 -102.384458 261 36378ft 391kts
07-Jan-20 06:48 35.086727 -102.513895 261 36380ft 391kts
07-Jan-20 06:49 35.062532 -102.643795 261 36382ft 391kts
07-Jan-20 06:50 35.038226 -102.773460 261 36383ft 392kts
07-Jan-20 06:51 35.013801 -102.902933 261 36382ft 392kts
07-Jan-20 06:52 34.989148 -103.032806 261 36380ft 393kts
07-Jan-20 06:53 34.964364 -103.162570 261 36386ft 393kts
07-Jan-20 06:54 34.939397 -103.292499 261 36384ft 392kts
07-Jan-20 06:55 34.914338 -103.422103 260 36380ft 393kts
07-Jan-20 06:56 34.889112 -103.551782 260 36380ft 394kts
07-Jan-20 06:57 34.863652 -103.681869 260 36385ft 394kts
07-Jan-20 06:58 34.838082 -103.811727 260 36388ft 395kts
07-Jan-20 06:59 34.812319 -103.941787 260 36389ft 395kts
07-Jan-20 07:00 34.786347 -104.072118 260 36394ft 397kts
07-Jan-20 07:01 34.760539 -104.202527 260 36397ft 397kts
07-Jan-20 07:02 34.734125 -104.332763 259 36400ft 398kts
07-Jan-20 07:03 34.707422 -104.463657 259 36401ft 398kts
07-Jan-20 07:04 34.696196 -104.596283 269 36404ft 395kts
07-Jan-20 07:05 34.690236 -104.729475 269 36424ft 395kts
07-Jan-20 07:06 34.684210 -104.862479 269 36436ft 395kts
07-Jan-20 07:07 34.678658 -104.995842 269 36442ft 396kts
07-Jan-20 07:08 34.672900 -105.129525 269 36447ft 396kts
07-Jan-20 07:09 34.666788 -105.263477 269 36447ft 397kts
07-Jan-20 07:10 34.660479 -105.397591 268 36452ft 398kts
07-Jan-20 07:11 34.654016 -105.531582 268 36457ft 399kts
07-Jan-20 07:12 34.647386 -105.665925 268 36462ft 400kts
07-Jan-20 07:13 34.640541 -105.801529 268 36489ft 406kts
07-Jan-20 07:14 34.633466 -105.938667 268 36497ft 406kts
07-Jan-20 07:15 34.626242 -106.075716 268 36514ft 408kts
07-Jan-20 07:16 34.618860 -106.212819 268 36523ft 407kts
07-Jan-20 07:17 34.611324 -106.349891 268 36527ft 407kts
07-Jan-20 07:18 34.603608 -106.487430 268 36530ft 407kts
07-Jan-20 07:19 34.595777 -106.624262 268 36533ft 406kts
07-Jan-20 07:20 34.587806 -106.760842 268 36538ft 406kts
07-Jan-20 07:21 34.579648 -106.897994 267 36544ft 407kts
07-Jan-20 07:22 34.571325 -107.035234 267 36542ft 407kts
07-Jan-20 07:23 34.562855 -107.172465 267 36542ft 408kts
07-Jan-20 07:24 34.554241 -107.309456 267 36544ft 408kts
07-Jan-20 07:25 34.545457 -107.446713 267 36545ft 409kts
07-Jan-20 07:26 34.536476 -107.584546 267 36545ft 409kts
07-Jan-20 07:27 34.527324 -107.722626 267 36546ft 410kts
07-Jan-20 07:28 34.518056 -107.860084 267 36555ft 410kts
07-Jan-20 07:29 34.508607 -107.997897 267 36558ft 410kts
07-Jan-20 07:30 34.498984 -108.135985 266 36557ft 411kts
07-Jan-20 07:31 34.489211 -108.273949 266 36546ft 411kts
07-Jan-20 07:32 34.479260 -108.412198 266 36539ft 411kts
07-Jan-20 07:33 34.469189 -108.549937 266 36533ft 411kts
07-Jan-20 07:34 34.458948 -108.687846 266 36527ft 411kts
07-Jan-20 07:35 34.448852 -108.826015 266 36517ft 412kts
07-Jan-20 07:36 34.438153 -108.964124 266 36510ft 412kts
07-Jan-20 07:37 34.427120 -109.101868 264 36509ft 412kts
07-Jan-20 07:38 34.393342 -109.235113 251 36510ft 417kts
07-Jan-20 07:39 34.349731 -109.365293 251 36510ft 417kts
07-Jan-20 07:40 34.305706 -109.494994 250 36512ft 417kts
07-Jan-20 07:41 34.261504 -109.624836 250 36512ft 417kts
07-Jan-20 07:42 34.217257 -109.754109 250 36507ft 417kts
07-Jan-20 07:43 34.172719 -109.883594 250 36508ft 417kts
07-Jan-20 07:44 34.128331 -110.013101 251 36508ft 417kts
07-Jan-20 07:45 34.084140 -110.142263 250 36508ft 417kts
07-Jan-20 07:46 34.039212 -110.271329 250 36500ft 417kts
07-Jan-20 07:47 33.994255 -110.400221 250 36481ft 417kts
07-Jan-20 07:48 33.949499 -110.529005 250 36466ft 417kts
07-Jan-20 07:49 33.904364 -110.657597 250 36451ft 417kts
07-Jan-20 07:50 33.858995 -110.785905 250 36438ft 416kts
07-Jan-20 07:51 33.813726 -110.913695 250 36426ft 415kts
07-Jan-20 07:52 33.768506 -111.041796 249 36410ft 416kts
07-Jan-20 07:53 33.722742 -111.169578 249 36393ft 416kts
07-Jan-20 07:54 33.676991 -111.297093 249 36374ft 416kts
07-Jan-20 07:55 33.630876 -111.424884 249 36342ft 416kts
07-Jan-20 07:56 33.586015 -111.548718 249 36323ft 417kts
07-Jan-20 07:57 33.540212 -111.676621 249 36313ft 416kts
07-Jan-20 07:58 33.493951 -111.803818 249 36312ft 416kts
07-Jan-20 07:59 33.447440 -111.930637 248 36311ft 417kts
07-Jan-20 08:00 33.381939 -112.046565 235 36310ft 421kts
07-Jan-20 08:01 33.308395 -112.155135 235 36313ft 421kts
07-Jan-20 08:02 33.234646 -112.264082 235 36315ft 421kts
07-Jan-20 08:03 33.161300 -112.373014 235 36323ft 420kts
07-Jan-20 08:04 33.087933 -112.481578 235 36320ft 419kts
07-Jan-20 08:05 33.014290 -112.589466 235 36320ft 419kts
07-Jan-20 08:06 32.955303 -112.705861 258 36321ft 410kts
07-Jan-20 08:07 32.934243 -112.838983 262 36319ft 409kts
07-Jan-20 08:08 32.915745 -112.972389 262 36318ft 408kts
07-Jan-20 08:09 32.897543 -113.105703 262 36317ft 408kts
07-Jan-20 08:10 32.879467 -113.239041 262 36315ft 408kts
07-Jan-20 08:11 32.861322 -113.372036 262 36308ft 407kts
07-Jan-20 08:12 32.842638 -113.504786 261 36301ft 407kts
07-Jan-20 08:13 32.823773 -113.637337 261 36305ft 407kts
07-Jan-20 08:14 32.805031 -113.770023 261 36302ft 406kts
07-Jan-20 08:15 32.785890 -113.902486 261 36300ft 406kts
07-Jan-20 08:16 32.775066 -114.035730 269 36297ft 405kts
07-Jan-20 08:17 32.779009 -114.168855 272 36295ft 404kts
07-Jan-20 08:18 32.784258 -114.302579 272 36292ft 404kts
07-Jan-20 08:19 32.801293 -114.434361 285 36291ft 407kts
07-Jan-20 08:20 32.836252 -114.562849 286 36296ft 407kts
07-Jan-20 08:21 32.870385 -114.691004 281 36305ft 406kts
07-Jan-20 08:22 32.876948 -114.824373 268 36195ft 407kts
07-Jan-20 08:23 32.873973 -114.958678 268 33630ft 407kts
07-Jan-20 08:24 32.871315 -115.092297 268 31345ft 397kts
07-Jan-20 08:25 32.867975 -115.221987 268 29346ft 386kts
07-Jan-20 08:26 32.863918 -115.348185 264 27398ft 377kts
07-Jan-20 08:27 32.846837 -115.470135 261 25475ft 369kts
07-Jan-20 08:28 32.828324 -115.587768 259 23714ft 359kts
07-Jan-20 08:29 32.809306 -115.702671 259 21920ft 351kts
07-Jan-20 08:30 32.790602 -115.815406 259 20165ft 343kts
07-Jan-20 08:31 32.778878 -115.927035 266 18438ft 337kts
07-Jan-20 08:32 32.771287 -116.037140 264 16713ft 332kts
07-Jan-20 08:33 32.762947 -116.145610 264 15020ft 329kts
07-Jan-20 08:34 32.754545 -116.253790 264 13340ft 326kts
07-Jan-20 08:35 32.746382 -116.360335 264 11719ft 323kts
07-Jan-20 08:36 32.737937 -116.467356 264 10148ft 317kts
07-Jan-20 08:37 32.729195 -116.564893 263 9293ft 284kts
07-Jan-20 08:38 32.720395 -116.654923 263 8096ft 264kts
07-Jan-20 08:39 32.713552 -116.741526 265 6812ft 261kts
07-Jan-20 08:40 32.705177 -116.825629 255 5945ft 246kts
07-Jan-20 08:41 32.681120 -116.901513 250 4711ft 243kts
07-Jan-20 08:42 32.681241 -116.975272 288 3629ft 217kts
07-Jan-20 08:43 32.697158 -117.039584 288 2699ft 190kts
07-Jan-20 08:44 32.710815 -117.095864 288 1754ft 156kts
07-Jan-20 08:45 32.722476 -117.144332 287 776ft 146kts
07-Jan-20 08:46 32.733458 -117.189296 286 23ft 104kts
07-Jan-20 08:47 32.733598 -117.195886 200 23ft 6kts
07-Jan-20 08:48 32.733239 -117.196028 197 23ft 0kts
07-Jan-20 08:49 32.733239 -117.196028 197 23ft 0kts
07-Jan-20 08:50 32.733239 -117.196028 197 23ft 0kts
07-Jan-20 08:51 32.733239 -117.196028 197 23ft 0kts
07-Jan-20 08:53 32.733239 -117.196028 197 23ft 0kts
07-Jan-20 08:54 32.733239 -117.196028 197 23ft 0kts

Navigation Log

Ident Type
Flight plan parsing failed, navigation log unavailable